Historyczne dane pomiarowe

Dodano dane terminowe – wersja testowa.

Dane z okresu 1951-2019

Wersja bazy: 1.34 [2019-03-16, lista zmian], aktualizacja planowana na 2019-04-15

Dane meteo z obszaru Polski uzyskane na podstawie danych udostępnionych przez Instytut Meteorologii i Gospodarki Wodnej – Państwowy Instytut Badawczy.

 

Wybierz Datę:    

       

TemperaturaWilgotnośćZachmurzenieWiatrCiśnienieWidzialnośćZjawiska
 Data    tng td wb rh cc ccl cl cm ch dir g1 g2 mslp ppp      
1999-07-05 00:00:00 19.9--- 17.9 18.688wxwx3wx--1011.7 989.3 0.0---wx
1999-07-05 01:00:00 19.5--- 17.7 18.389wxwxwxwx3wx--1011.2 988.8----wx
1999-07-05 02:00:00 18.6--- 17.5 17.993wxwxwx3wx--1010.9 988.4----wx
1999-07-05 03:00:00 18.4--- 16.7 17.390wxwxwx4wx--1010.8 988.3----wx
1999-07-05 04:00:00 18.3--- 16.6 17.290wxwxwx4wx--1010.4 987.9----wx
1999-07-05 05:00:00 20.1--- 17.3 18.384wxwxwx4wx--1010.2 987.8----wx
1999-07-05 06:00:00 21.2--- 18.2 19.283wxwxwx3wx--1010.0 987.7 0.0---wx
1999-07-05 07:00:00 24.4--- 19.4 21.074wxwxwxwx3wx--1009.4 987.4----wx
1999-07-05 08:00:00 26.8--- 18.8 21.462wxwxwx4wx--1009.2 987.3----wx
1999-07-05 09:00:00 28.8--- 19.0 22.155wxwxwxwx4wx--1008.9 987.2----wx
1999-07-05 10:00:00 30.4--- 18.0 22.047wxwxwxwx4wx--1008.7 987.1----wx
1999-07-05 11:00:00 31.4--- 16.7 21.641wxwxwx4wx--1008.3 986.8----wx
1999-07-05 12:00:00 32.0--- 15.9 21.438wxwxwx4wx--1007.8 986.3 0.0---wx
1999-07-05 13:00:00 32.6--- 16.0 21.637wxwxwxwx5wx--1007.5 986.1----wx
1999-07-05 14:00:00 32.3--- 15.4 21.236wxwxwxwx5wx--1007.3 985.9----wx
1999-07-05 15:00:00 32.0--- 15.9 21.438wxwxwxwx5wx--1007.4 985.9----wx
1999-07-05 16:00:00 31.1--- 15.3 20.839wxwxwxwx4wx--1007.3 985.8----wx
1999-07-05 17:00:00 30.1--- 17.0 21.446wxwxwxwx4wx--1007.3 985.7----wx
1999-07-05 18:00:00 28.5--- 17.6 21.252wxwxwxwx2wx--1007.5 985.8 0.0---wx
1999-07-05 19:00:00 27.0--- 17.4 20.656wxwxwxwx3wx--1007.5 985.7----wx
1999-07-05 20:00:00 24.8--- 18.9 20.870wxwxwxwx2wx--1007.8 985.8----wx
1999-07-05 21:00:00 24.7--- 18.6 20.669wxwxwxwx2wx--1007.8 985.8----wxw1
1999-07-05 22:00:00 25.0--- 18.1 20.466wxwxwxwx3wx--1008.2 986.2----wx
1999-07-05 23:00:00 24.6--- 18.0 20.267wxwxwx2wx--1007.8 985.8----wx

 

Źródłem pochodzenia danych jest Instytut Meteorologii i Gospodarki Wodnej – Państwowy Instytut Badawczy. Dane Instytutu Meteorologii i Gospodarki Wodnej – Państwowego Instytutu Badawczego zostały przetworzone.

Dane źródłowe można odnaleźć na stronie https://dane.imgw.pl